createdAt,value
2023-01-22T00:01:14.674Z,21.55
2023-01-22T00:03:44.726Z,18.38
2023-01-22T00:06:13.950Z,18.67
2023-01-22T00:08:41.375Z,19.00
2023-01-22T00:11:09.712Z,19.27
2023-01-22T00:13:37.068Z,18.52
2023-01-22T00:16:07.520Z,18.83
2023-01-22T00:18:35.005Z,19.05
2023-01-22T00:21:02.146Z,17.25
2023-01-22T00:23:29.562Z,18.00
2023-01-22T00:26:04.999Z,18.48
2023-01-22T00:28:34.827Z,20.42
2023-01-22T00:31:06.799Z,20.30
2023-01-22T00:33:34.720Z,16.85
2023-01-22T00:36:06.389Z,17.05
2023-01-22T00:38:36.634Z,18.33
2023-01-22T00:41:05.798Z,19.58
2023-01-22T00:43:34.884Z,23.38
2023-01-22T00:46:04.829Z,19.33
2023-01-22T00:48:32.239Z,18.42
2023-01-22T00:51:01.612Z,20.05
2023-01-22T00:53:29.010Z,19.42
2023-01-22T00:56:01.078Z,20.40
2023-01-22T00:58:29.346Z,20.30
2023-01-22T01:00:56.968Z,20.08
2023-01-22T01:03:24.412Z,18.92
2023-01-22T01:05:51.414Z,18.73
2023-01-22T01:08:21.135Z,19.88
2023-01-22T01:10:48.414Z,21.80
2023-01-22T01:13:15.773Z,20.23
2023-01-22T01:15:42.873Z,18.88
2023-01-22T01:18:10.340Z,19.83
2023-01-22T01:20:37.402Z,21.00
2023-01-22T01:23:04.816Z,19.27
2023-01-22T01:25:34.095Z,19.15
2023-01-22T01:28:01.417Z,19.88
2023-01-22T01:30:28.447Z,23.15
2023-01-22T01:32:55.800Z,19.38
2023-01-22T01:35:24.351Z,17.40
2023-01-22T01:37:52.766Z,17.20
2023-01-22T01:40:20.053Z,16.85
2023-01-22T01:42:49.646Z,17.38
2023-01-22T01:45:33.690Z,18.33
2023-01-22T01:48:17.457Z,18.67
2023-01-22T01:50:50.788Z,16.38
2023-01-22T01:53:20.805Z,17.52
2023-01-22T01:55:50.498Z,16.45
2023-01-22T01:58:19.305Z,16.73
2023-01-22T02:00:49.360Z,16.92
2023-01-22T02:03:17.159Z,18.80
2023-01-22T02:05:46.508Z,17.20
2023-01-22T02:08:17.335Z,17.02
2023-01-22T02:10:45.130Z,19.50
2023-01-22T02:13:19.073Z,18.25
2023-01-22T02:15:46.185Z,17.75
2023-01-22T02:18:13.540Z,20.58
2023-01-22T02:20:58.962Z,19.58
2023-01-22T02:23:27.464Z,20.15
2023-01-22T02:25:57.691Z,20.13
2023-01-22T02:28:25.073Z,20.48
2023-01-22T02:30:52.202Z,19.48
2023-01-22T02:33:19.628Z,20.17
2023-01-22T02:35:48.932Z,18.40
2023-01-22T02:38:18.693Z,19.45
2023-01-22T02:40:48.264Z,23.48
2023-01-22T02:43:15.671Z,19.17
2023-01-22T02:45:45.228Z,20.48
2023-01-22T02:48:12.678Z,21.25
2023-01-22T02:50:39.714Z,20.05
2023-01-22T02:53:07.096Z,18.73
2023-01-22T02:55:38.057Z,18.80
2023-01-22T02:58:05.808Z,20.00
2023-01-22T03:00:32.819Z,18.63
2023-01-22T03:03:00.131Z,19.60
2023-01-22T03:05:30.418Z,19.30
2023-01-22T03:08:00.403Z,18.70
2023-01-22T03:10:27.433Z,18.00
2023-01-22T03:12:54.740Z,19.40
2023-01-22T03:15:21.765Z,17.30
2023-01-22T03:17:49.092Z,17.05
2023-01-22T03:20:19.121Z,16.88
2023-01-22T03:22:46.631Z,15.63
2023-01-22T03:25:13.693Z,16.95
2023-01-22T03:27:41.000Z,16.45
2023-01-22T03:30:08.734Z,17.70
2023-01-22T03:32:38.526Z,15.25
2023-01-22T03:35:07.961Z,12.57
2023-01-22T03:37:35.280Z,13.25
2023-01-22T03:40:02.307Z,14.00
2023-01-22T03:42:29.613Z,12.45
2023-01-22T03:44:59.137Z,12.20
2023-01-22T03:47:26.472Z,13.20
2023-01-22T03:49:53.557Z,12.57
2023-01-22T03:52:20.886Z,10.45
2023-01-22T03:54:47.874Z,9.40
2023-01-22T03:57:15.180Z,9.77
2023-01-22T03:59:42.214Z,9.82
2023-01-22T04:02:11.812Z,10.88
2023-01-22T04:04:41.259Z,8.45
2023-01-22T04:07:10.842Z,8.40
2023-01-22T04:09:40.181Z,8.75
2023-01-22T04:12:07.751Z,9.90
2023-01-22T04:14:34.777Z,8.98
2023-01-22T04:17:02.062Z,8.95
2023-01-22T04:19:31.603Z,8.90
2023-01-22T04:22:01.152Z,9.55
2023-01-22T04:24:28.183Z,8.18
2023-01-22T04:26:55.514Z,10.50
2023-01-22T04:29:22.561Z,8.57
2023-01-22T04:31:49.951Z,9.75
2023-01-22T04:34:17.015Z,10.45
2023-01-22T04:36:44.326Z,9.88
2023-01-22T04:39:13.938Z,9.68
2023-01-22T04:41:41.243Z,9.82
2023-01-22T04:44:08.338Z,9.40
2023-01-22T04:46:37.865Z,9.73
2023-01-22T04:49:04.857Z,10.07
2023-01-22T04:51:34.389Z,10.82
2023-01-22T04:54:01.408Z,11.27
2023-01-22T04:56:31.274Z,10.57
2023-01-22T04:58:58.264Z,11.70
2023-01-22T05:01:25.743Z,10.15
2023-01-22T05:03:55.308Z,10.35
2023-01-22T05:06:25.097Z,10.60
2023-01-22T05:08:52.108Z,12.05
2023-01-22T05:11:19.461Z,11.95
2023-01-22T05:13:48.675Z,13.00
2023-01-22T05:16:16.006Z,13.52
2023-01-22T05:18:43.013Z,14.32
2023-01-22T05:21:12.829Z,14.93
2023-01-22T05:23:42.083Z,14.73
2023-01-22T05:26:09.933Z,17.02
2023-01-22T05:28:36.989Z,18.00
2023-01-22T05:31:04.523Z,18.40
2023-01-22T05:33:32.025Z,18.20
2023-01-22T05:36:01.036Z,18.58
2023-01-22T05:38:29.641Z,19.58
2023-01-22T05:40:59.466Z,19.17
2023-01-22T05:43:28.989Z,19.55
2023-01-22T05:46:03.031Z,18.75
2023-01-22T05:48:32.387Z,20.58
2023-01-22T05:51:07.487Z,22.30
2023-01-22T05:53:35.557Z,22.20
2023-01-22T05:56:06.549Z,19.88
2023-01-22T05:58:33.864Z,21.30
2023-01-22T06:01:01.160Z,21.08
2023-01-22T06:03:30.549Z,22.23
2023-01-22T06:06:06.311Z,21.15
2023-01-22T06:08:36.502Z,21.85
2023-01-22T06:11:06.371Z,24.50
2023-01-22T06:13:34.304Z,22.48
2023-01-22T06:16:04.408Z,23.67
2023-01-22T06:18:31.526Z,24.70
2023-01-22T06:21:06.460Z,24.27
2023-01-22T06:23:35.796Z,26.38
2023-01-22T06:26:04.278Z,24.92
2023-01-22T06:28:34.061Z,27.90
2023-01-22T06:31:02.978Z,22.65
2023-01-22T06:33:30.125Z,23.95
2023-01-22T06:35:57.580Z,23.98
2023-01-22T06:38:24.967Z,22.50
2023-01-22T06:40:57.240Z,23.63
2023-01-22T06:43:25.444Z,22.58
2023-01-22T06:45:55.684Z,22.95
2023-01-22T06:48:23.182Z,19.73
2023-01-22T06:50:56.646Z,21.17
2023-01-22T06:53:23.711Z,16.15
2023-01-22T06:55:51.002Z,22.95
2023-01-22T06:58:18.220Z,20.38
2023-01-22T07:00:45.597Z,20.38
2023-01-22T07:03:15.122Z,21.10
2023-01-22T07:05:42.495Z,18.88
2023-01-22T07:08:14.679Z,18.38
2023-01-22T07:10:44.581Z,19.20
2023-01-22T07:13:11.788Z,17.90
2023-01-22T07:15:42.079Z,19.60
2023-01-22T07:18:10.493Z,18.02
2023-01-22T07:20:41.460Z,19.48
2023-01-22T07:23:09.258Z,18.05
2023-01-22T07:25:39.034Z,19.58
2023-01-22T07:28:06.685Z,21.02
2023-01-22T07:30:36.372Z,19.65
2023-01-22T07:33:04.246Z,22.08
2023-01-22T07:35:33.854Z,21.63
2023-01-22T07:38:00.881Z,21.83
2023-01-22T07:40:28.584Z,21.35
2023-01-22T07:42:56.195Z,26.00
2023-01-22T07:45:26.537Z,21.55
2023-01-22T07:47:55.944Z,23.02
2023-01-22T07:50:24.742Z,22.90
2023-01-22T07:52:51.898Z,24.95
2023-01-22T07:55:19.256Z,26.15
2023-01-22T07:57:46.334Z,25.00
2023-01-22T08:00:17.143Z,23.65
2023-01-22T08:02:44.258Z,24.77
2023-01-22T08:05:16.251Z,23.50
2023-01-22T08:07:43.319Z,24.38
2023-01-22T08:10:13.582Z,24.27
2023-01-22T08:12:41.378Z,23.10
2023-01-22T08:15:09.899Z,24.60
2023-01-22T08:17:38.058Z,24.75
2023-01-22T08:20:06.314Z,26.77
2023-01-22T08:22:33.376Z,26.13
2023-01-22T08:25:00.698Z,22.83
2023-01-22T08:27:27.702Z,22.17
2023-01-22T08:29:55.027Z,24.33
2023-01-22T08:32:22.137Z,24.83
2023-01-22T08:34:49.567Z,24.35
2023-01-22T08:37:16.583Z,21.60
2023-01-22T08:39:43.908Z,23.52
2023-01-22T08:42:10.975Z,21.33
2023-01-22T08:44:42.980Z,20.42
2023-01-22T08:47:10.015Z,19.92
2023-01-22T08:49:37.494Z,20.23
2023-01-22T08:52:07.134Z,22.23
2023-01-22T08:54:36.675Z,20.45
2023-01-22T08:57:05.941Z,19.52
2023-01-22T08:59:33.273Z,18.70
2023-01-22T09:02:01.050Z,18.17
2023-01-22T09:04:28.958Z,17.52
2023-01-22T09:06:56.137Z,17.85
2023-01-22T09:09:23.774Z,18.35
2023-01-22T09:11:53.388Z,19.27
2023-01-22T09:14:20.698Z,19.42
2023-01-22T09:16:47.817Z,17.42
2023-01-22T09:19:17.754Z,18.85
2023-01-22T09:21:47.378Z,18.10
2023-01-22T09:24:14.715Z,18.08
2023-01-22T09:26:41.777Z,20.23
2023-01-22T09:29:09.094Z,20.35
2023-01-22T09:31:37.225Z,18.98
2023-01-22T09:34:05.463Z,20.48
2023-01-22T09:36:32.667Z,18.95
2023-01-22T09:39:00.017Z,19.15
2023-01-22T09:41:28.829Z,20.15
2023-01-22T09:44:12.830Z,19.33
2023-01-22T09:46:48.555Z,21.30
2023-01-22T09:49:36.861Z,17.65
2023-01-22T09:52:05.610Z,14.95
2023-01-22T09:54:33.465Z,16.67
2023-01-22T09:57:04.527Z,17.40
2023-01-22T09:59:56.015Z,17.00
2023-01-22T10:02:25.939Z,16.77
2023-01-22T10:05:02.277Z,16.98
2023-01-22T10:07:36.983Z,17.88
2023-01-22T10:10:27.858Z,18.30
2023-01-22T10:13:20.548Z,16.85
2023-01-22T10:15:53.342Z,19.67
2023-01-22T10:18:26.155Z,18.33
2023-01-22T10:20:55.409Z,19.25
2023-01-22T10:23:25.734Z,18.30
2023-01-22T10:26:05.042Z,18.55
2023-01-22T10:28:32.188Z,17.25
2023-01-22T10:30:59.597Z,18.83
2023-01-22T10:33:27.661Z,18.60
2023-01-22T10:35:57.254Z,19.10
2023-01-22T10:38:27.623Z,20.88
2023-01-22T10:41:00.802Z,20.88
2023-01-22T10:43:36.534Z,20.70
2023-01-22T10:46:17.190Z,21.30
2023-01-22T10:48:44.458Z,22.33
2023-01-22T10:51:16.459Z,22.85
2023-01-22T10:53:57.588Z,25.55
2023-01-22T10:56:35.049Z,29.63
2023-01-22T10:59:23.365Z,25.17
2023-01-22T11:02:11.104Z,22.65
2023-01-22T11:04:38.523Z,21.48
2023-01-22T11:07:07.277Z,21.63
2023-01-22T11:09:56.593Z,21.63
2023-01-22T11:12:32.702Z,18.95
2023-01-22T11:15:24.263Z,20.33
2023-01-22T11:17:55.755Z,15.75
2023-01-22T11:20:35.193Z,16.00
2023-01-22T11:23:11.772Z,19.60
2023-01-22T11:25:45.012Z,19.00
2023-01-22T11:28:39.133Z,18.83
2023-01-22T11:31:19.779Z,19.20
2023-01-22T11:34:05.708Z,18.58
2023-01-22T11:36:57.738Z,17.52
2023-01-22T11:39:37.295Z,20.75
2023-01-22T11:42:35.595Z,19.40
2023-01-22T11:45:28.003Z,19.52
2023-01-22T11:48:07.957Z,21.08
2023-01-22T11:50:59.704Z,21.92
2023-01-22T11:53:45.087Z,20.02
2023-01-22T11:56:40.126Z,20.88
2023-01-22T11:59:25.474Z,18.08
2023-01-22T12:01:55.697Z,16.27
2023-01-22T12:04:25.459Z,18.35
2023-01-22T12:07:29.517Z,18.13
2023-01-22T12:10:02.207Z,19.38
2023-01-22T12:12:32.529Z,13.90
2023-01-22T12:15:09.848Z,17.73
2023-01-22T12:18:01.211Z,17.98
2023-01-22T12:20:55.974Z,19.73
2023-01-22T12:23:29.429Z,16.50
2023-01-22T12:26:06.343Z,19.40
2023-01-22T12:29:14.145Z,17.33
2023-01-22T12:31:56.604Z,18.48
2023-01-22T12:34:34.163Z,16.50
2023-01-22T12:37:03.139Z,18.27
2023-01-22T12:40:05.750Z,21.23
2023-01-22T12:42:55.940Z,20.15
2023-01-22T12:45:35.583Z,17.05
2023-01-22T12:48:31.064Z,16.63
2023-01-22T12:50:58.880Z,16.88
2023-01-22T12:53:35.107Z,18.40
2023-01-22T12:56:05.682Z,18.77
2023-01-22T12:58:35.196Z,20.67
2023-01-22T13:01:11.613Z,19.77
2023-01-22T13:03:40.848Z,20.15
2023-01-22T13:06:20.160Z,20.90
2023-01-22T13:08:47.336Z,22.20
2023-01-22T13:11:33.844Z,21.63
2023-01-22T13:14:21.308Z,19.55
2023-01-22T13:16:58.078Z,21.23
2023-01-22T13:19:30.537Z,18.77
2023-01-22T13:22:02.282Z,18.37
2023-01-22T13:24:29.429Z,18.52
2023-01-22T13:27:02.354Z,18.52
2023-01-22T13:29:37.534Z,21.75
2023-01-22T13:32:17.343Z,18.05
2023-01-22T13:34:44.548Z,21.35
2023-01-22T13:37:27.371Z,19.00
2023-01-22T13:39:56.912Z,17.88
2023-01-22T13:42:27.100Z,20.27
2023-01-22T13:44:58.590Z,18.17
2023-01-22T13:47:34.743Z,19.35
2023-01-22T13:50:02.050Z,21.23
2023-01-22T13:52:31.834Z,19.70
2023-01-22T13:55:01.076Z,18.67
2023-01-22T13:57:28.551Z,19.27
2023-01-22T14:00:02.087Z,18.33
2023-01-22T14:02:35.735Z,17.52
2023-01-22T14:05:27.232Z,16.60
2023-01-22T14:08:12.837Z,22.67
2023-01-22T14:10:42.469Z,18.02
2023-01-22T14:13:11.770Z,17.33
2023-01-22T14:15:40.308Z,18.05
2023-01-22T14:18:12.067Z,17.80
2023-01-22T14:20:50.596Z,16.77
2023-01-22T14:23:20.513Z,15.70
2023-01-22T14:25:49.745Z,15.70
2023-01-22T14:28:19.403Z,15.43
2023-01-22T14:30:49.246Z,16.63
2023-01-22T14:33:24.029Z,17.27
2023-01-22T14:35:52.926Z,15.95
2023-01-22T14:38:20.474Z,18.25
2023-01-22T14:40:47.670Z,18.52
2023-01-22T14:43:15.411Z,17.15
2023-01-22T14:45:48.336Z,16.83
2023-01-22T14:48:18.615Z,15.63
2023-01-22T14:50:48.720Z,18.30
2023-01-22T14:53:17.829Z,17.15
2023-01-22T14:55:47.503Z,16.20
2023-01-22T14:58:17.322Z,14.95
2023-01-22T15:00:44.765Z,15.50
2023-01-22T15:03:14.406Z,15.63
2023-01-22T15:05:44.031Z,13.55
2023-01-22T15:08:16.041Z,13.90
2023-01-22T15:10:43.115Z,12.82
2023-01-22T15:13:10.451Z,14.55
2023-01-22T15:15:37.762Z,14.43
2023-01-22T15:18:05.172Z,15.13
2023-01-22T15:20:34.439Z,15.15
2023-01-22T15:23:03.992Z,14.90
2023-01-22T15:25:31.072Z,15.63
2023-01-22T15:28:00.984Z,16.42
2023-01-22T15:30:28.292Z,18.02
2023-01-22T15:32:55.829Z,19.35
2023-01-22T15:35:22.888Z,18.65
2023-01-22T15:37:50.306Z,18.48
2023-01-22T15:40:17.845Z,20.50
2023-01-22T15:42:47.685Z,18.70
2023-01-22T15:45:14.804Z,18.45
2023-01-22T15:47:44.418Z,18.73
2023-01-22T15:50:13.977Z,20.95
2023-01-22T15:52:43.795Z,21.23
2023-01-22T15:55:10.820Z,18.50
2023-01-22T15:57:38.297Z,18.17
2023-01-22T16:00:09.347Z,18.88
2023-01-22T16:02:36.832Z,17.95
2023-01-22T16:05:04.185Z,17.25
2023-01-22T16:07:31.592Z,19.27
2023-01-22T16:10:00.874Z,19.40
2023-01-22T16:12:28.311Z,20.35
2023-01-22T16:14:55.338Z,19.15
2023-01-22T16:17:22.837Z,20.90
2023-01-22T16:19:50.052Z,21.35
2023-01-22T16:22:19.699Z,22.58
2023-01-22T16:24:48.952Z,23.13
2023-01-22T16:27:16.359Z,22.65
2023-01-22T16:29:45.857Z,22.35
2023-01-22T16:32:13.217Z,23.50
2023-01-22T16:34:40.291Z,22.13
2023-01-22T16:37:07.666Z,23.27
2023-01-22T16:39:34.748Z,23.77
2023-01-22T16:42:04.602Z,23.50
2023-01-22T16:44:33.954Z,22.55
2023-01-22T16:47:01.291Z,23.58
2023-01-22T16:49:30.739Z,22.88
2023-01-22T16:52:12.944Z,20.90
2023-01-22T16:54:44.371Z,22.55
2023-01-22T16:57:11.786Z,23.50
2023-01-22T16:59:39.229Z,22.98
2023-01-22T17:02:15.531Z,22.48
2023-01-22T17:04:43.262Z,23.90
2023-01-22T17:07:27.326Z,27.33
2023-01-22T17:10:01.469Z,25.92
2023-01-22T17:12:28.945Z,25.75
2023-01-22T17:14:55.990Z,23.95
2023-01-22T17:17:23.320Z,24.35
2023-01-22T17:19:50.402Z,23.92
2023-01-22T17:22:17.995Z,23.95
2023-01-22T17:24:45.016Z,25.67
2023-01-22T17:27:12.393Z,24.13
2023-01-22T17:29:39.423Z,24.40
2023-01-22T17:32:09.249Z,24.90
2023-01-22T17:34:36.333Z,23.88
2023-01-22T17:37:04.316Z,24.60
2023-01-22T17:39:33.615Z,22.65
2023-01-22T17:42:03.211Z,23.38
2023-01-22T17:44:30.346Z,22.88
2023-01-22T17:46:57.674Z,23.05
2023-01-22T17:49:25.265Z,24.40
2023-01-22T17:51:55.241Z,24.67
2023-01-22T17:54:22.349Z,24.45
2023-01-22T17:56:52.662Z,23.52
2023-01-22T17:59:24.392Z,24.23
2023-01-22T18:01:54.067Z,22.38
2023-01-22T18:04:21.255Z,21.92
2023-01-22T18:06:48.854Z,22.58
2023-01-22T18:09:20.711Z,20.42
2023-01-22T18:11:52.491Z,21.15
2023-01-22T18:14:19.828Z,22.73
2023-01-22T18:16:50.111Z,23.10
2023-01-22T18:19:17.510Z,22.85
2023-01-22T18:21:45.336Z,25.42
2023-01-22T18:24:13.214Z,24.85
2023-01-22T18:26:40.664Z,23.80
2023-01-22T18:29:08.682Z,28.92
2023-01-22T18:31:36.205Z,24.85
2023-01-22T18:34:05.233Z,24.38
2023-01-22T18:36:35.670Z,24.98
2023-01-22T18:39:07.859Z,24.83
2023-01-22T18:41:38.432Z,24.20
2023-01-22T18:44:09.062Z,27.92
2023-01-22T18:46:37.098Z,26.67
2023-01-22T18:49:06.789Z,24.52
2023-01-22T18:51:34.669Z,33.38
2023-01-22T18:54:05.384Z,27.60
2023-01-22T18:56:37.536Z,25.00
2023-01-22T18:59:07.548Z,26.25
2023-01-22T19:01:37.409Z,25.58
2023-01-22T19:04:08.277Z,24.45
2023-01-22T19:06:37.835Z,28.88
2023-01-22T19:09:11.120Z,24.58
2023-01-22T19:11:40.220Z,25.63
2023-01-22T19:14:08.157Z,25.60
2023-01-22T19:16:38.566Z,23.60
2023-01-22T19:19:10.267Z,25.25
2023-01-22T19:21:43.642Z,23.50
2023-01-22T19:24:14.379Z,27.00
2023-01-22T19:26:42.732Z,24.75
2023-01-22T19:29:14.302Z,27.45
2023-01-22T19:31:44.293Z,25.50
2023-01-22T19:34:13.085Z,26.13
2023-01-22T19:36:42.665Z,24.35
2023-01-22T19:39:12.732Z,32.10
2023-01-22T19:41:43.000Z,27.90
2023-01-22T19:44:10.828Z,24.63
2023-01-22T19:46:38.810Z,23.85
2023-01-22T19:49:10.336Z,23.27
2023-01-22T19:51:40.229Z,26.17
2023-01-22T19:54:07.969Z,26.88
2023-01-22T19:56:37.555Z,27.23
2023-01-22T19:59:15.840Z,23.40
2023-01-22T20:01:44.345Z,26.35
2023-01-22T20:04:19.520Z,24.20
2023-01-22T20:06:48.539Z,23.85
2023-01-22T20:09:17.996Z,23.25
2023-01-22T20:11:48.365Z,25.38
2023-01-22T20:14:15.495Z,24.85
2023-01-22T20:16:45.320Z,25.98
2023-01-22T20:19:16.980Z,29.80
2023-01-22T20:21:44.347Z,22.05
2023-01-22T20:24:11.398Z,23.20
2023-01-22T20:26:38.915Z,25.38
2023-01-22T20:29:06.332Z,23.90
2023-01-22T20:31:33.825Z,24.58
2023-01-22T20:34:00.917Z,24.15
2023-01-22T20:36:33.857Z,20.92
2023-01-22T20:39:03.828Z,22.95
2023-01-22T20:41:33.639Z,22.45
2023-01-22T20:44:03.213Z,26.67
2023-01-22T20:46:30.793Z,23.20
2023-01-22T20:48:58.436Z,22.25
2023-01-22T20:51:30.511Z,24.02
2023-01-22T20:53:57.647Z,24.08
2023-01-22T20:56:30.626Z,28.77
2023-01-22T20:59:00.350Z,24.05
2023-01-22T21:01:28.922Z,23.02
2023-01-22T21:03:59.716Z,23.40
2023-01-22T21:06:29.231Z,21.75
2023-01-22T21:08:57.080Z,22.45
2023-01-22T21:11:25.713Z,22.02
2023-01-22T21:13:54.796Z,21.98
2023-01-22T21:16:25.055Z,22.60
2023-01-22T21:19:22.033Z,24.52
2023-01-22T21:21:50.600Z,24.15
2023-01-22T21:24:18.354Z,22.27
2023-01-22T21:26:50.646Z,21.83
2023-01-22T21:29:20.242Z,22.55
2023-01-22T21:31:52.118Z,22.02
2023-01-22T21:34:22.069Z,23.95
2023-01-22T21:36:51.783Z,27.85
2023-01-22T21:39:21.053Z,26.35
2023-01-22T21:41:51.467Z,20.73
2023-01-22T21:44:19.624Z,21.67
2023-01-22T21:46:47.401Z,20.92
2023-01-22T21:49:17.351Z,21.55
2023-01-22T21:51:48.757Z,21.95
2023-01-22T21:54:28.120Z,21.77
2023-01-22T21:56:56.467Z,22.73
2023-01-22T21:59:24.001Z,20.73
2023-01-22T22:01:54.029Z,19.10
2023-01-22T22:04:22.683Z,21.08
2023-01-22T22:06:50.082Z,19.00
2023-01-22T22:09:20.355Z,18.10
2023-01-22T22:11:48.536Z,18.17
2023-01-22T22:14:17.769Z,18.13
2023-01-22T22:16:45.194Z,18.05
2023-01-22T22:19:15.650Z,17.80
2023-01-22T22:21:43.067Z,18.83
2023-01-22T22:24:10.833Z,16.88
2023-01-22T22:26:39.121Z,18.58
2023-01-22T22:29:09.340Z,16.58
2023-01-22T22:31:39.415Z,16.13
2023-01-22T22:34:06.685Z,17.42
2023-01-22T22:36:34.137Z,18.35
2023-01-22T22:39:02.192Z,17.15
2023-01-22T22:41:34.359Z,17.10
2023-01-22T22:44:01.461Z,15.82
2023-01-22T22:46:31.272Z,16.63
2023-01-22T22:48:59.812Z,19.30
2023-01-22T22:51:35.504Z,14.65
2023-01-22T22:54:08.073Z,21.05
2023-01-22T22:56:35.541Z,19.17
2023-01-22T22:59:03.801Z,21.13
2023-01-22T23:01:34.039Z,15.82
2023-01-22T23:04:04.142Z,17.00
2023-01-22T23:06:33.670Z,16.08
2023-01-22T23:09:01.577Z,16.45
2023-01-22T23:11:32.192Z,15.27
2023-01-22T23:14:00.387Z,16.80
2023-01-22T23:16:30.087Z,16.70
2023-01-22T23:19:03.484Z,17.48
2023-01-22T23:21:30.953Z,16.67
2023-01-22T23:24:00.735Z,16.08
2023-01-22T23:26:29.576Z,17.25
2023-01-22T23:29:07.195Z,16.80
2023-01-22T23:31:37.977Z,15.85
2023-01-22T23:34:08.535Z,17.77
2023-01-22T23:36:36.007Z,16.77
2023-01-22T23:39:04.051Z,17.17
2023-01-22T23:41:31.415Z,17.92
2023-01-22T23:43:58.460Z,17.45
2023-01-22T23:46:27.584Z,15.70
2023-01-22T23:48:55.803Z,16.63
2023-01-22T23:51:23.505Z,16.95
2023-01-22T23:53:56.348Z,18.38
2023-01-22T23:56:30.211Z,16.58
2023-01-22T23:58:57.828Z,15.40
